createdAt,value
2023-02-08T00:00:10.413Z,37.88
2023-02-08T00:05:20.389Z,38.97
2023-02-08T00:10:21.849Z,39.65
2023-02-08T00:15:20.619Z,41.85
2023-02-08T00:20:21.242Z,40.60
2023-02-08T00:25:21.785Z,41.03
2023-02-08T00:30:23.483Z,47.97
2023-02-08T00:35:31.944Z,41.72
2023-02-08T00:40:33.209Z,43.97
2023-02-08T00:45:34.250Z,44.25
2023-02-08T00:50:34.935Z,44.67
2023-02-08T00:55:44.182Z,46.10
2023-02-08T01:00:45.601Z,47.10
2023-02-08T01:05:44.569Z,47.22
2023-02-08T01:10:46.246Z,46.50
2023-02-08T01:15:51.275Z,44.17
2023-02-08T01:20:49.995Z,44.90
2023-02-08T01:25:48.187Z,42.85
2023-02-08T01:30:49.822Z,45.75
2023-02-08T01:35:52.661Z,41.63
2023-02-08T01:40:50.836Z,34.80
2023-02-08T01:45:49.442Z,40.22
2023-02-08T01:51:04.044Z,46.45
2023-02-08T01:56:35.266Z,35.55
2023-02-08T02:01:35.604Z,40.28
2023-02-08T02:06:43.449Z,46.55
2023-02-08T02:11:45.359Z,48.40
2023-02-08T02:16:44.193Z,26.92
2023-02-08T02:21:55.047Z,24.55
2023-02-08T02:33:04.322Z,22.73
2023-02-08T02:38:28.542Z,18.60
2023-02-08T02:49:01.210Z,15.50
2023-02-08T02:54:08.855Z,17.70
2023-02-08T02:59:09.856Z,19.73
2023-02-08T03:04:35.349Z,12.75
2023-02-08T03:10:20.897Z,14.25
2023-02-08T03:16:00.528Z,13.02
2023-02-08T03:21:11.785Z,12.82
2023-02-08T03:26:25.260Z,12.60
2023-02-08T03:31:41.046Z,11.00
2023-02-08T03:36:55.922Z,12.75
2023-02-08T03:42:02.429Z,12.52
2023-02-08T03:47:13.267Z,17.95
2023-02-08T03:52:13.801Z,13.00
2023-02-08T03:57:23.173Z,12.18
2023-02-08T04:02:28.732Z,16.13
2023-02-08T04:07:30.652Z,12.38
2023-02-08T04:12:31.410Z,12.35
2023-02-08T04:17:33.617Z,12.57
2023-02-08T04:22:31.610Z,13.75
2023-02-08T04:27:31.449Z,10.40
2023-02-08T04:32:31.764Z,17.48
2023-02-08T04:37:32.672Z,13.82
2023-02-08T04:42:34.157Z,5.13
2023-02-08T04:47:35.916Z,9.45
2023-02-08T04:52:34.968Z,10.32
2023-02-08T04:57:44.634Z,12.48
2023-02-08T05:02:46.605Z,13.80
2023-02-08T05:07:48.806Z,11.35
2023-02-08T05:12:47.399Z,12.18
2023-02-08T05:17:49.589Z,13.18
2023-02-08T05:22:50.537Z,13.38
2023-02-08T05:27:51.670Z,12.88
2023-02-08T05:32:50.718Z,10.13
2023-02-08T05:37:51.358Z,13.25
2023-02-08T05:42:51.230Z,12.85
2023-02-08T05:47:52.400Z,14.25
2023-02-08T05:52:56.306Z,16.00
2023-02-08T05:57:59.216Z,11.35
2023-02-08T06:02:58.628Z,17.17
2023-02-08T06:07:59.797Z,16.35
2023-02-08T06:13:02.240Z,24.25
2023-02-08T06:18:01.423Z,20.50
2023-02-08T06:22:59.072Z,19.23
2023-02-08T06:28:01.565Z,16.73
2023-02-08T06:33:03.904Z,14.88
2023-02-08T06:38:03.817Z,14.93
2023-02-08T06:43:04.962Z,15.70
2023-02-08T06:48:05.689Z,15.25
2023-02-08T06:53:05.879Z,14.40
2023-02-08T06:58:16.165Z,29.52
2023-02-08T07:03:20.502Z,13.10
2023-02-08T07:08:21.352Z,13.73
2023-02-08T07:13:20.329Z,11.13
2023-02-08T07:18:21.965Z,14.57
2023-02-08T07:23:21.434Z,11.40
2023-02-08T07:28:22.651Z,9.32
2023-02-08T07:33:22.914Z,12.07
2023-02-08T07:38:25.007Z,15.02
2023-02-08T07:43:27.557Z,11.65
2023-02-08T07:48:31.193Z,9.43
2023-02-08T07:53:35.305Z,11.52
2023-02-08T07:58:37.334Z,12.68
2023-02-08T08:03:38.201Z,13.32
2023-02-08T08:08:40.008Z,5.88
2023-02-08T08:13:41.647Z,5.45
2023-02-08T08:18:39.733Z,5.72
2023-02-08T08:23:40.770Z,12.45
2023-02-08T08:28:42.347Z,8.57
2023-02-08T08:33:44.651Z,9.32
2023-02-08T08:38:43.094Z,4.38
2023-02-08T08:43:44.862Z,7.43
2023-02-08T08:48:43.803Z,7.93
2023-02-08T08:53:44.750Z,12.82
2023-02-08T08:58:45.900Z,8.52
2023-02-08T09:03:47.030Z,7.43
2023-02-08T09:08:50.830Z,11.32
2023-02-08T09:13:53.112Z,11.45
2023-02-08T09:18:51.854Z,12.75
2023-02-08T09:23:50.136Z,11.48
2023-02-08T09:28:51.422Z,8.20
2023-02-08T09:33:51.698Z,8.82
2023-02-08T09:39:00.419Z,11.18
2023-02-08T09:44:25.584Z,13.45
2023-02-08T09:49:31.149Z,15.73
2023-02-08T09:54:53.039Z,16.38
2023-02-08T09:59:58.362Z,10.50
2023-02-08T10:05:21.501Z,12.82
2023-02-08T10:10:36.994Z,6.88
2023-02-08T10:15:55.517Z,11.20
2023-02-08T10:21:06.430Z,9.68
2023-02-08T10:26:18.675Z,14.48
2023-02-08T10:31:40.322Z,12.25
2023-02-08T10:36:43.407Z,15.95
2023-02-08T10:41:41.581Z,11.45
2023-02-08T10:52:31.458Z,10.68
2023-02-08T10:57:34.945Z,12.25
2023-02-08T11:02:44.589Z,16.02
2023-02-08T11:07:43.781Z,18.35
2023-02-08T11:13:18.611Z,15.98
2023-02-08T11:18:38.705Z,21.73
2023-02-08T11:23:43.444Z,19.45
2023-02-08T11:28:42.775Z,13.57
2023-02-08T11:34:00.411Z,18.40
2023-02-08T11:39:01.597Z,17.52
2023-02-08T11:44:03.524Z,15.07
2023-02-08T11:49:03.832Z,21.42
2023-02-08T11:54:02.752Z,14.70
2023-02-08T11:59:23.008Z,16.38
2023-02-08T12:04:23.431Z,17.08
2023-02-08T12:09:47.138Z,18.67
2023-02-08T12:15:15.964Z,14.00
2023-02-08T12:20:27.234Z,18.08
2023-02-08T12:25:55.484Z,14.77
2023-02-08T12:31:09.314Z,17.65
2023-02-08T12:36:30.979Z,15.98
2023-02-08T12:41:40.596Z,16.08
2023-02-08T12:47:01.078Z,22.50
2023-02-08T12:52:25.084Z,19.33
2023-02-08T12:57:24.552Z,16.60
2023-02-08T13:02:31.435Z,15.38
2023-02-08T13:07:36.555Z,17.15
2023-02-08T13:13:28.986Z,17.35
2023-02-08T13:19:09.334Z,15.82
2023-02-08T13:24:23.755Z,16.40
2023-02-08T13:29:28.222Z,16.48
2023-02-08T13:34:46.363Z,17.75
2023-02-08T13:39:49.399Z,15.48
2023-02-08T13:44:55.735Z,15.43
2023-02-08T13:49:55.221Z,23.63
2023-02-08T13:55:35.018Z,16.77
2023-02-08T14:00:37.136Z,15.98
2023-02-08T14:05:46.755Z,17.08
2023-02-08T14:10:54.813Z,14.48
2023-02-08T14:16:32.915Z,15.60
2023-02-08T14:21:36.688Z,18.95
2023-02-08T14:26:39.622Z,19.88
2023-02-08T14:31:41.627Z,15.05
2023-02-08T14:36:41.612Z,15.23
2023-02-08T14:41:48.994Z,16.17
2023-02-08T14:46:47.087Z,18.80
2023-02-08T14:51:51.224Z,14.82
2023-02-08T14:56:59.139Z,19.75
2023-02-08T15:02:01.114Z,18.60
2023-02-08T15:07:33.499Z,20.80
2023-02-08T15:12:36.444Z,16.20
2023-02-08T15:17:51.488Z,16.07
2023-02-08T15:23:00.033Z,17.80
2023-02-08T15:28:01.642Z,16.60
2023-02-08T15:33:01.736Z,22.98
2023-02-08T15:38:00.867Z,16.75
2023-02-08T15:43:13.466Z,24.58
2023-02-08T15:48:15.403Z,17.65
2023-02-08T15:53:14.291Z,15.93
2023-02-08T15:58:33.733Z,21.58
2023-02-08T16:03:33.382Z,20.08
2023-02-08T16:08:36.670Z,19.42
2023-02-08T16:13:36.688Z,19.25
2023-02-08T16:18:40.068Z,16.67
2023-02-08T16:23:49.077Z,22.65
2023-02-08T16:28:59.485Z,21.40
2023-02-08T16:34:02.129Z,21.77
2023-02-08T16:39:16.459Z,12.90
2023-02-08T16:44:24.804Z,16.35
2023-02-08T16:49:28.383Z,22.98
2023-02-08T16:54:28.480Z,22.63
2023-02-08T16:59:28.333Z,21.58
2023-02-08T17:04:30.660Z,19.88
2023-02-08T17:09:30.273Z,17.80
2023-02-08T17:14:29.312Z,16.67
2023-02-08T17:19:28.910Z,22.25
2023-02-08T17:24:29.094Z,20.67
2023-02-08T17:29:27.032Z,26.67
2023-02-08T17:34:25.841Z,26.30
2023-02-08T17:39:23.443Z,25.58
2023-02-08T17:44:20.956Z,29.92
2023-02-08T17:49:19.442Z,27.55
2023-02-08T17:54:19.648Z,28.17
2023-02-08T17:59:18.639Z,28.60
2023-02-08T18:04:17.009Z,28.08
2023-02-08T18:09:16.356Z,30.25
2023-02-08T18:14:14.477Z,22.98
2023-02-08T18:19:12.919Z,26.55
2023-02-08T18:24:24.638Z,25.38
2023-02-08T18:29:26.180Z,27.73
2023-02-08T18:34:26.860Z,28.48
2023-02-08T18:39:30.482Z,33.58
2023-02-08T18:44:35.422Z,53.88
2023-02-08T18:49:40.814Z,67.38
2023-02-08T18:54:43.684Z,68.55
2023-02-08T18:59:45.004Z,60.03
2023-02-08T19:04:43.953Z,56.65
2023-02-08T19:09:46.390Z,55.78
2023-02-08T19:14:44.748Z,55.85
2023-02-08T19:19:42.643Z,57.40
2023-02-08T19:24:42.558Z,59.85
2023-02-08T19:29:41.360Z,66.28
2023-02-08T19:34:40.006Z,59.67
2023-02-08T19:39:41.927Z,61.08
2023-02-08T19:44:39.555Z,65.53
2023-02-08T19:49:41.748Z,56.13
2023-02-08T19:54:39.767Z,59.40
2023-02-08T19:59:41.640Z,59.45
2023-02-08T20:04:41.111Z,54.78
2023-02-08T20:09:40.378Z,55.13
2023-02-08T20:14:38.213Z,58.30
2023-02-08T20:19:37.428Z,66.40
2023-02-08T20:24:38.472Z,51.13
2023-02-08T20:29:39.459Z,47.67
2023-02-08T20:34:47.479Z,45.97
2023-02-08T20:39:54.387Z,44.65
2023-02-08T20:44:53.620Z,41.08
2023-02-08T20:49:52.719Z,41.85
2023-02-08T20:54:54.413Z,45.63
2023-02-08T21:00:15.090Z,45.90
2023-02-08T21:05:18.102Z,50.20
2023-02-08T21:10:19.387Z,51.10
2023-02-08T21:15:20.967Z,52.00
2023-02-08T21:20:19.482Z,64.72
2023-02-08T21:25:18.453Z,67.53
2023-02-08T21:30:17.660Z,63.55
2023-02-08T21:35:15.484Z,60.22
2023-02-08T21:40:13.836Z,55.75
2023-02-08T21:45:24.586Z,47.47
2023-02-08T21:50:43.714Z,45.47
2023-02-08T21:55:47.098Z,45.45
2023-02-08T22:00:45.999Z,36.95
2023-02-08T22:06:10.669Z,49.03
2023-02-08T22:11:16.441Z,42.67
2023-02-08T22:16:16.846Z,45.03
2023-02-08T22:21:17.158Z,55.28
2023-02-08T22:26:16.836Z,50.45
2023-02-08T22:31:16.552Z,46.95
2023-02-08T22:36:15.483Z,58.25
2023-02-08T22:41:16.260Z,56.65
2023-02-08T22:46:14.740Z,49.13
2023-02-08T22:51:17.206Z,55.20
2023-02-08T22:56:16.661Z,63.80
2023-02-08T23:01:17.081Z,47.92
2023-02-08T23:06:17.239Z,46.58
2023-02-08T23:11:16.766Z,50.35
2023-02-08T23:16:16.898Z,45.08
2023-02-08T23:21:17.437Z,44.28
2023-02-08T23:26:21.794Z,49.10
2023-02-08T23:31:24.930Z,50.45
2023-02-08T23:36:26.389Z,36.75
2023-02-08T23:41:24.753Z,41.17
2023-02-08T23:46:25.458Z,38.90
2023-02-08T23:51:25.610Z,33.00
2023-02-08T23:56:28.244Z,38.95
